createdAt,value
2022-10-05T00:00:45.658Z,15.35
2022-10-05T00:03:13.415Z,13.93
2022-10-05T00:05:41.779Z,13.70
2022-10-05T00:08:16.877Z,15.38
2022-10-05T00:10:46.387Z,15.45
2022-10-05T00:13:15.111Z,15.57
2022-10-05T00:15:43.748Z,16.98
2022-10-05T00:18:15.344Z,16.88
2022-10-05T00:20:44.508Z,19.30
2022-10-05T00:23:19.760Z,18.00
2022-10-05T00:25:47.873Z,15.43
2022-10-05T00:28:22.942Z,18.27
2022-10-05T00:30:50.782Z,17.58
2022-10-05T00:33:18.581Z,17.70
2022-10-05T00:35:46.365Z,17.33
2022-10-05T00:38:15.487Z,17.20
2022-10-05T00:40:55.523Z,15.48
2022-10-05T00:43:38.427Z,17.15
2022-10-05T00:46:10.900Z,16.90
2022-10-05T00:51:22.784Z,18.95
2022-10-05T00:54:06.729Z,19.80
2022-10-05T00:56:50.040Z,16.13
2022-10-05T00:59:30.824Z,14.95
2022-10-05T01:02:01.742Z,19.08
2022-10-05T01:04:40.162Z,17.33
2022-10-05T01:07:16.968Z,18.02
2022-10-05T01:09:57.023Z,17.95
2022-10-05T01:12:33.274Z,23.52
2022-10-05T01:15:06.348Z,30.45
2022-10-05T01:17:42.332Z,21.90
2022-10-05T01:20:28.326Z,24.95
2022-10-05T01:23:38.771Z,26.58
2022-10-05T01:26:29.764Z,27.48
2022-10-05T01:29:06.388Z,29.45
2022-10-05T01:31:40.850Z,26.52
2022-10-05T01:34:14.631Z,24.02
2022-10-05T01:36:53.214Z,17.83
2022-10-05T01:39:32.459Z,13.85
2022-10-05T01:42:07.419Z,18.88
2022-10-05T01:44:45.388Z,18.25
2022-10-05T01:47:21.149Z,16.38
2022-10-05T01:50:01.180Z,19.50
2022-10-05T01:52:35.176Z,18.92
2022-10-05T01:55:16.713Z,18.20
2022-10-05T01:57:59.022Z,17.27
2022-10-05T02:00:31.870Z,19.38
2022-10-05T02:03:05.980Z,15.38
2022-10-05T02:05:39.726Z,16.50
2022-10-05T02:08:12.415Z,15.02
2022-10-05T02:10:47.334Z,15.20
2022-10-05T02:13:22.411Z,14.85
2022-10-05T02:15:57.964Z,18.83
2022-10-05T02:18:35.454Z,17.63
2022-10-05T02:21:05.297Z,13.55
2022-10-05T02:23:37.500Z,18.67
2022-10-05T02:26:07.499Z,21.30
2022-10-05T02:28:40.897Z,23.33
2022-10-05T02:31:12.347Z,22.75
2022-10-05T02:33:40.410Z,22.00
2022-10-05T02:36:15.078Z,22.58
2022-10-05T02:39:04.824Z,21.45
2022-10-05T02:41:45.895Z,21.90
2022-10-05T02:44:25.155Z,24.80
2022-10-05T02:47:06.272Z,23.50
2022-10-05T02:49:41.877Z,29.85
2022-10-05T02:52:17.597Z,24.10
2022-10-05T02:54:55.221Z,23.58
2022-10-05T02:57:29.420Z,24.50
2022-10-05T03:00:06.919Z,23.00
2022-10-05T03:02:44.026Z,23.75
2022-10-05T03:05:21.360Z,20.88
2022-10-05T03:07:56.816Z,19.50
2022-10-05T03:10:30.421Z,22.98
2022-10-05T03:13:04.927Z,26.90
2022-10-05T03:16:00.014Z,24.75
2022-10-05T03:18:39.833Z,26.55
2022-10-05T03:21:21.174Z,28.42
2022-10-05T03:24:01.462Z,26.30
2022-10-05T03:26:41.819Z,28.00
2022-10-05T03:29:21.960Z,21.90
2022-10-05T03:31:56.268Z,28.15
2022-10-05T03:34:34.672Z,24.13
2022-10-05T03:37:11.613Z,24.85
2022-10-05T03:39:44.783Z,26.38
2022-10-05T03:42:22.106Z,23.05
2022-10-05T03:44:58.050Z,28.30
2022-10-05T03:47:37.038Z,25.02
2022-10-05T03:50:24.215Z,21.90
2022-10-05T03:52:56.897Z,20.67
2022-10-05T03:55:29.519Z,20.27
2022-10-05T03:58:01.214Z,18.20
2022-10-05T04:00:31.829Z,19.70
2022-10-05T04:03:04.503Z,25.60
2022-10-05T04:05:39.277Z,26.98
2022-10-05T04:08:14.376Z,24.80
2022-10-05T04:10:46.510Z,21.98
2022-10-05T04:13:20.113Z,17.88
2022-10-05T04:15:55.869Z,22.77
2022-10-05T04:18:31.009Z,17.98
2022-10-05T04:21:05.813Z,24.25
2022-10-05T04:23:45.715Z,22.02
2022-10-05T04:26:18.862Z,23.77
2022-10-05T04:28:54.164Z,19.45
2022-10-05T04:31:38.270Z,19.92
2022-10-05T04:34:15.717Z,19.27
2022-10-05T04:36:52.162Z,24.33
2022-10-05T04:39:28.098Z,20.40
2022-10-05T04:42:07.533Z,20.15
2022-10-05T04:44:45.934Z,19.75
2022-10-05T04:47:31.734Z,21.83
2022-10-05T04:50:16.578Z,19.30
2022-10-05T04:52:57.043Z,20.52
2022-10-05T04:55:31.452Z,21.20
2022-10-05T04:58:09.928Z,20.30
2022-10-05T05:00:52.114Z,23.10
2022-10-05T05:03:40.708Z,26.40
2022-10-05T05:06:19.702Z,22.08
2022-10-05T05:09:08.718Z,19.40
2022-10-05T05:11:44.172Z,23.45
2022-10-05T05:14:27.992Z,20.52
2022-10-05T05:17:03.533Z,19.83
2022-10-05T05:19:43.121Z,20.85
2022-10-05T05:22:20.096Z,22.35
2022-10-05T05:25:11.094Z,26.75
2022-10-05T05:27:43.942Z,29.00
2022-10-05T05:30:21.560Z,27.45
2022-10-05T05:33:05.217Z,29.75
2022-10-05T05:36:01.330Z,33.05
2022-10-05T05:38:34.453Z,30.08
2022-10-05T05:41:10.476Z,21.08
2022-10-05T05:43:53.220Z,19.20
2022-10-05T05:46:51.299Z,19.60
2022-10-05T05:49:19.306Z,24.70
2022-10-05T05:51:53.267Z,20.15
2022-10-05T05:54:32.511Z,16.30
2022-10-05T05:57:11.132Z,17.25
2022-10-05T05:59:50.563Z,14.15
2022-10-05T06:02:21.503Z,20.15
2022-10-05T06:04:53.449Z,14.57
2022-10-05T06:07:30.144Z,18.92
2022-10-05T06:10:05.829Z,17.90
2022-10-05T06:12:39.645Z,16.40
2022-10-05T06:15:18.565Z,17.85
2022-10-05T06:17:50.155Z,21.98
2022-10-05T06:20:25.170Z,17.57
2022-10-05T06:22:54.355Z,16.25
2022-10-05T06:25:34.663Z,18.27
2022-10-05T06:28:10.670Z,16.65
2022-10-05T06:30:49.696Z,19.35
2022-10-05T06:33:31.955Z,18.35
2022-10-05T06:36:13.759Z,18.35
2022-10-05T06:39:02.907Z,18.50
2022-10-05T06:41:42.580Z,19.42
2022-10-05T06:44:17.209Z,18.33
2022-10-05T06:46:56.660Z,21.52
2022-10-05T06:49:28.273Z,20.98
2022-10-05T06:52:00.905Z,17.53
2022-10-05T06:54:43.289Z,16.98
2022-10-05T06:57:18.375Z,16.63
2022-10-05T06:59:53.255Z,21.33
2022-10-05T07:02:30.405Z,16.65
2022-10-05T07:05:21.240Z,18.15
2022-10-05T07:07:54.649Z,15.35
2022-10-05T07:10:32.337Z,13.70
2022-10-05T07:13:29.745Z,14.38
2022-10-05T07:16:07.039Z,17.13
2022-10-05T07:18:48.066Z,16.52
2022-10-05T07:21:28.312Z,18.38
2022-10-05T07:24:06.494Z,17.08
2022-10-05T07:26:38.370Z,16.60
2022-10-05T07:29:25.818Z,18.13
2022-10-05T07:32:08.616Z,21.48
2022-10-05T07:34:48.021Z,20.58
2022-10-05T07:37:38.545Z,18.00
2022-10-05T07:40:13.475Z,14.57
2022-10-05T07:42:56.480Z,13.27
2022-10-05T07:45:30.417Z,16.75
2022-10-05T07:48:05.243Z,17.15
2022-10-05T07:50:39.663Z,13.98
2022-10-05T07:53:14.932Z,15.35
2022-10-05T07:55:48.139Z,19.50
2022-10-05T07:58:21.554Z,16.73
2022-10-05T08:01:05.861Z,13.35
2022-10-05T08:03:46.291Z,18.77
2022-10-05T08:06:34.689Z,14.70
2022-10-05T08:09:13.845Z,15.35
2022-10-05T08:11:49.496Z,14.93
2022-10-05T08:14:25.662Z,15.45
2022-10-05T08:16:58.586Z,17.25
2022-10-05T08:19:35.576Z,18.77
2022-10-05T08:22:07.317Z,18.75
2022-10-05T08:24:44.643Z,20.27
2022-10-05T08:27:17.739Z,22.25
2022-10-05T08:29:56.426Z,11.43
2022-10-05T08:32:27.413Z,13.07
2022-10-05T08:35:02.603Z,10.40
2022-10-05T08:37:35.462Z,11.82
2022-10-05T08:40:33.270Z,13.75
2022-10-05T08:43:17.162Z,12.98
2022-10-05T08:46:03.810Z,14.07
2022-10-05T08:49:04.425Z,19.98
2022-10-05T08:52:08.677Z,17.20
2022-10-05T08:54:59.642Z,15.02
2022-10-05T08:57:51.957Z,10.68
2022-10-05T09:00:21.968Z,15.10
2022-10-05T09:03:18.886Z,14.75
2022-10-05T09:06:25.787Z,16.15
2022-10-05T09:09:23.157Z,9.48
2022-10-05T09:12:05.870Z,12.63
2022-10-05T09:14:56.635Z,13.45
2022-10-05T09:18:08.607Z,13.23
2022-10-05T09:20:50.294Z,11.63
2022-10-05T09:23:37.068Z,10.68
2022-10-05T09:26:10.419Z,13.80
2022-10-05T09:28:57.478Z,9.73
2022-10-05T09:31:51.607Z,9.20
2022-10-05T09:34:42.927Z,10.88
2022-10-05T09:37:53.419Z,8.88
2022-10-05T09:41:00.951Z,11.38
2022-10-05T09:44:01.366Z,11.60
2022-10-05T09:46:53.473Z,14.02
2022-10-05T09:49:44.451Z,14.38
2022-10-05T09:52:35.999Z,10.15
2022-10-05T09:55:51.720Z,11.70
2022-10-05T09:59:07.686Z,10.43
2022-10-05T10:01:58.120Z,13.20
2022-10-05T10:04:49.162Z,11.95
2022-10-05T10:07:53.232Z,16.27
2022-10-05T10:10:57.322Z,11.63
2022-10-05T10:14:12.983Z,14.27
2022-10-05T10:17:02.800Z,10.48
2022-10-05T10:19:58.374Z,11.20
2022-10-05T10:22:48.998Z,12.55
2022-10-05T10:25:52.232Z,9.93
2022-10-05T10:28:37.665Z,10.68
2022-10-05T10:31:29.991Z,16.67
2022-10-05T10:34:15.049Z,11.40
2022-10-05T10:37:10.941Z,15.50
2022-10-05T10:39:54.639Z,14.15
2022-10-05T10:42:40.871Z,12.00
2022-10-05T10:45:35.574Z,14.40
2022-10-05T10:48:06.092Z,11.15
2022-10-05T10:51:03.141Z,11.82
2022-10-05T10:53:49.111Z,12.55
2022-10-05T10:56:49.493Z,9.88
2022-10-05T10:59:53.984Z,11.82
2022-10-05T11:02:42.816Z,10.20
2022-10-05T11:05:29.889Z,12.32
2022-10-05T11:08:28.547Z,11.85
2022-10-05T11:11:17.733Z,12.07
2022-10-05T11:14:15.172Z,15.57
2022-10-05T11:17:09.585Z,11.90
2022-10-05T11:20:17.585Z,9.85
2022-10-05T11:22:55.927Z,11.38
2022-10-05T11:25:48.798Z,8.13
2022-10-05T11:28:36.345Z,14.73
2022-10-05T11:31:42.541Z,10.88
2022-10-05T11:34:34.925Z,11.13
2022-10-05T11:37:31.840Z,9.70
2022-10-05T11:40:33.264Z,7.60
2022-10-05T11:43:38.043Z,14.68
2022-10-05T11:46:18.255Z,8.98
2022-10-05T11:49:16.938Z,9.18
2022-10-05T11:51:54.325Z,11.20
2022-10-05T11:55:10.438Z,10.48
2022-10-05T11:57:49.150Z,11.88
2022-10-05T12:00:21.100Z,4.85
2022-10-05T12:03:09.356Z,6.72
2022-10-05T12:05:49.905Z,7.07
2022-10-05T12:08:29.089Z,8.55
2022-10-05T12:11:08.866Z,7.50
2022-10-05T12:13:47.456Z,4.78
2022-10-05T12:16:22.114Z,4.60
2022-10-05T12:18:58.193Z,6.40
2022-10-05T12:21:34.883Z,9.23
2022-10-05T12:24:13.680Z,7.25
2022-10-05T12:26:48.433Z,10.98
2022-10-05T12:29:21.635Z,8.52
2022-10-05T12:31:59.839Z,5.97
2022-10-05T12:34:39.289Z,8.88
2022-10-05T12:37:14.930Z,11.60
2022-10-05T12:39:51.602Z,10.63
2022-10-05T12:42:29.701Z,10.40
2022-10-05T12:45:09.893Z,8.52
2022-10-05T12:47:54.409Z,11.75
2022-10-05T12:50:27.246Z,8.85
2022-10-05T12:53:10.488Z,9.68
2022-10-05T12:55:49.788Z,10.25
2022-10-05T12:58:27.797Z,8.15
2022-10-05T13:01:02.365Z,5.78
2022-10-05T13:03:38.479Z,3.85
2022-10-05T13:06:15.367Z,8.07
2022-10-05T13:08:52.413Z,7.65
2022-10-05T13:11:28.535Z,7.10
2022-10-05T13:14:05.203Z,8.13
2022-10-05T13:16:40.663Z,7.07
2022-10-05T13:19:25.548Z,5.75
2022-10-05T13:22:17.222Z,7.88
2022-10-05T13:24:56.724Z,8.43
2022-10-05T13:27:28.779Z,11.82
2022-10-05T13:30:03.059Z,8.20
2022-10-05T13:32:36.337Z,8.48
2022-10-05T13:35:23.222Z,7.90
2022-10-05T13:38:02.732Z,10.13
2022-10-05T13:40:36.651Z,8.40
2022-10-05T13:43:14.467Z,11.32
2022-10-05T13:45:52.666Z,5.43
2022-10-05T13:48:47.328Z,5.18
2022-10-05T13:51:22.444Z,5.82
2022-10-05T13:53:56.032Z,15.90
2022-10-05T13:56:30.105Z,10.45
2022-10-05T13:59:12.363Z,10.30
2022-10-05T14:01:44.961Z,6.07
2022-10-05T14:04:19.751Z,8.15
2022-10-05T14:06:50.212Z,6.30
2022-10-05T14:09:29.776Z,4.07
2022-10-05T14:12:14.519Z,5.63
2022-10-05T14:14:49.053Z,4.43
2022-10-05T14:17:32.110Z,5.07
2022-10-05T14:20:02.935Z,14.80
2022-10-05T14:22:42.973Z,5.82
2022-10-05T14:25:17.083Z,12.02
2022-10-05T14:27:51.735Z,6.30
2022-10-05T14:30:22.122Z,4.07
2022-10-05T14:32:52.511Z,3.22
2022-10-05T14:35:22.169Z,5.15
2022-10-05T14:37:57.224Z,4.43
2022-10-05T14:40:33.709Z,3.63
2022-10-05T14:43:18.259Z,5.50
2022-10-05T14:45:57.388Z,7.10
2022-10-05T14:48:27.982Z,5.60
2022-10-05T14:50:57.920Z,3.25
2022-10-05T14:53:38.102Z,2.45
2022-10-05T14:56:23.776Z,3.13
2022-10-05T14:59:22.164Z,2.92
2022-10-05T15:01:56.497Z,3.22
2022-10-05T15:04:50.073Z,2.15
2022-10-05T15:07:25.480Z,2.45
2022-10-05T15:10:22.551Z,3.08
2022-10-05T15:12:51.962Z,3.75
2022-10-05T15:15:29.245Z,4.30
2022-10-05T15:18:02.263Z,3.90
2022-10-05T15:20:36.950Z,3.60
2022-10-05T15:23:24.841Z,5.45
2022-10-05T15:26:04.122Z,4.60
2022-10-05T15:28:38.557Z,5.38
2022-10-05T15:31:14.494Z,5.03
2022-10-05T15:33:53.751Z,15.63
2022-10-05T15:36:26.827Z,4.85
2022-10-05T15:39:05.943Z,11.63
2022-10-05T15:41:55.278Z,6.35
2022-10-05T15:44:39.799Z,4.88
2022-10-05T15:47:13.158Z,6.72
2022-10-05T15:49:49.537Z,6.03
2022-10-05T15:52:25.574Z,3.97
2022-10-05T15:55:20.863Z,4.78
2022-10-05T15:57:59.540Z,5.68
2022-10-05T16:00:30.171Z,3.83
2022-10-05T16:03:11.169Z,5.20
2022-10-05T16:06:02.729Z,5.47
2022-10-05T16:08:56.280Z,2.88
2022-10-05T16:11:36.946Z,3.30
2022-10-05T16:14:20.766Z,4.70
2022-10-05T16:17:03.368Z,4.65
2022-10-05T16:19:38.098Z,3.50
2022-10-05T16:22:16.980Z,5.75
2022-10-05T16:25:07.341Z,5.90
2022-10-05T16:27:48.346Z,4.28
2022-10-05T16:30:20.830Z,3.58
2022-10-05T16:32:57.830Z,3.13
2022-10-05T16:35:37.456Z,7.88
2022-10-05T16:38:18.699Z,9.48
2022-10-05T16:40:59.709Z,8.23
2022-10-05T16:43:41.463Z,3.10
2022-10-05T16:46:22.274Z,2.67
2022-10-05T16:49:00.180Z,4.28
2022-10-05T16:51:34.379Z,6.63
2022-10-05T16:54:13.278Z,6.72
2022-10-05T16:56:44.523Z,7.65
2022-10-05T16:59:39.498Z,6.57
2022-10-05T17:02:20.597Z,5.80
2022-10-05T17:05:00.778Z,4.32
2022-10-05T17:07:55.753Z,6.53
2022-10-05T17:10:38.904Z,4.38
2022-10-05T17:13:19.671Z,5.15
2022-10-05T17:16:04.003Z,6.72
2022-10-05T17:19:09.188Z,4.30
2022-10-05T17:21:44.459Z,6.88
2022-10-05T17:24:49.592Z,5.47
2022-10-05T17:27:26.859Z,5.00
2022-10-05T17:29:56.488Z,7.80
2022-10-05T17:32:57.281Z,4.38
2022-10-05T17:35:50.848Z,4.05
2022-10-05T17:38:22.473Z,3.28
2022-10-05T17:41:19.044Z,8.38
2022-10-05T17:44:21.751Z,4.00
2022-10-05T17:46:51.640Z,5.15
2022-10-05T17:49:39.184Z,6.18
2022-10-05T17:52:40.996Z,4.10
2022-10-05T17:55:28.244Z,5.18
2022-10-05T17:57:59.762Z,4.43
2022-10-05T18:00:41.929Z,4.57
2022-10-05T18:03:40.717Z,3.47
2022-10-05T18:06:31.923Z,4.38
2022-10-05T18:09:39.150Z,6.95
2022-10-05T18:12:25.656Z,6.53
2022-10-05T18:15:14.247Z,7.95
2022-10-05T18:17:46.393Z,4.40
2022-10-05T18:20:21.662Z,4.95
2022-10-05T18:22:50.470Z,4.90
2022-10-05T18:25:30.169Z,6.45
2022-10-05T18:28:22.432Z,3.65
2022-10-05T18:31:11.132Z,4.68
2022-10-05T18:33:59.778Z,5.72
2022-10-05T18:36:54.239Z,5.95
2022-10-05T18:39:40.145Z,4.70
2022-10-05T18:42:16.547Z,4.60
2022-10-05T18:44:50.575Z,8.18
2022-10-05T18:47:24.214Z,6.15
2022-10-05T18:50:06.069Z,4.35
2022-10-05T18:52:45.664Z,4.47
2022-10-05T18:55:20.143Z,7.78
2022-10-05T18:58:20.461Z,4.03
2022-10-05T19:01:40.289Z,5.20
2022-10-05T19:04:22.248Z,4.90
2022-10-05T19:07:00.559Z,5.03
2022-10-05T19:09:47.025Z,4.88
2022-10-05T19:12:24.695Z,4.40
2022-10-05T19:15:00.183Z,4.78
2022-10-05T19:17:43.642Z,5.82
2022-10-05T19:20:20.646Z,5.13
2022-10-05T19:23:09.396Z,5.93
2022-10-05T19:25:43.479Z,4.85
2022-10-05T19:28:22.608Z,5.47
2022-10-05T19:31:02.483Z,5.20
2022-10-05T19:33:44.804Z,3.83
2022-10-05T19:36:26.226Z,4.38
2022-10-05T19:39:04.524Z,4.05
2022-10-05T19:41:45.442Z,4.07
2022-10-05T19:44:24.113Z,4.30
2022-10-05T19:47:01.117Z,4.82
2022-10-05T19:49:44.391Z,6.43
2022-10-05T19:52:14.744Z,5.57
2022-10-05T19:54:43.577Z,4.25
2022-10-05T19:57:18.074Z,5.53
2022-10-05T19:59:47.785Z,4.97
2022-10-05T20:02:17.083Z,3.55
2022-10-05T20:04:49.516Z,6.25
2022-10-05T20:07:21.556Z,4.57
2022-10-05T20:09:55.015Z,5.28
2022-10-05T20:12:23.705Z,6.70
2022-10-05T20:15:26.343Z,5.18
2022-10-05T20:18:11.822Z,4.68
2022-10-05T20:20:45.779Z,5.22
2022-10-05T20:23:23.750Z,5.70
2022-10-05T20:26:05.953Z,4.00
2022-10-05T20:28:34.082Z,4.07
2022-10-05T20:31:02.085Z,5.90
2022-10-05T20:33:30.367Z,5.50
2022-10-05T20:35:59.512Z,4.40
2022-10-05T20:38:27.624Z,4.28
2022-10-05T20:40:55.552Z,5.10
2022-10-05T20:43:23.358Z,3.88
2022-10-05T20:45:52.315Z,7.00
2022-10-05T20:48:20.130Z,5.82
2022-10-05T20:50:49.053Z,4.85
2022-10-05T20:53:18.167Z,4.72
2022-10-05T20:55:45.994Z,4.82
2022-10-05T20:58:13.673Z,4.25
2022-10-05T21:00:59.144Z,4.55
2022-10-05T21:03:27.024Z,7.40
2022-10-05T21:05:54.750Z,4.18
2022-10-05T21:08:25.129Z,3.72
2022-10-05T21:10:53.098Z,3.13
2022-10-05T21:13:20.893Z,5.13
2022-10-05T21:15:48.694Z,4.50
2022-10-05T21:18:16.758Z,3.95
2022-10-05T21:20:50.526Z,3.50
2022-10-05T21:23:18.242Z,3.92
2022-10-05T21:25:48.343Z,4.28
2022-10-05T21:28:16.395Z,4.47
2022-10-05T21:30:44.242Z,5.20
2022-10-05T21:33:12.093Z,5.35
2022-10-05T21:35:39.784Z,3.50
2022-10-05T21:38:07.522Z,4.40
2022-10-05T21:40:35.315Z,4.70
2022-10-05T21:43:04.672Z,4.10
2022-10-05T21:45:32.612Z,5.95
2022-10-05T21:48:00.409Z,4.10
2022-10-05T21:50:28.410Z,6.15
2022-10-05T21:52:56.148Z,6.45
2022-10-05T21:55:23.945Z,2.88
2022-10-05T21:57:51.732Z,3.17
2022-10-05T22:00:20.910Z,2.97
2022-10-05T22:02:48.654Z,2.47
2022-10-05T22:05:16.594Z,3.17
2022-10-05T22:07:44.545Z,2.80
2022-10-05T22:10:12.440Z,3.92
2022-10-05T22:12:41.528Z,3.50
2022-10-05T22:15:10.506Z,5.15
2022-10-05T22:17:42.176Z,3.83
2022-10-05T22:20:13.237Z,5.13
2022-10-05T22:22:41.027Z,4.18
2022-10-05T22:25:09.381Z,4.25
2022-10-05T22:27:37.308Z,3.70
2022-10-05T22:30:06.021Z,3.90
2022-10-05T22:32:33.731Z,1.98
2022-10-05T22:35:03.758Z,4.00
2022-10-05T22:37:37.661Z,2.97
2022-10-05T22:40:06.380Z,7.65
2022-10-05T22:42:34.313Z,4.55
2022-10-05T22:45:02.055Z,6.32
2022-10-05T22:47:29.878Z,3.25
2022-10-05T22:49:57.595Z,4.18
2022-10-05T22:52:27.226Z,3.33
2022-10-05T22:54:55.079Z,2.20
2022-10-05T22:57:22.853Z,3.37
2022-10-05T22:59:50.555Z,2.55
2022-10-05T23:02:19.832Z,2.05
2022-10-05T23:04:47.778Z,1.40
2022-10-05T23:07:15.508Z,2.88
2022-10-05T23:09:44.867Z,1.70
2022-10-05T23:12:13.606Z,1.40
2022-10-05T23:14:41.595Z,2.25
2022-10-05T23:17:09.310Z,2.10
2022-10-05T23:19:37.022Z,3.25
2022-10-05T23:22:04.759Z,2.67
2022-10-05T23:24:32.465Z,3.47
2022-10-05T23:27:01.719Z,3.95
2022-10-05T23:29:29.512Z,3.30
2022-10-05T23:31:57.210Z,2.05
2022-10-05T23:34:25.662Z,2.55
2022-10-05T23:36:53.350Z,3.28
2022-10-05T23:39:21.046Z,2.08
2022-10-05T23:41:48.712Z,3.25
2022-10-05T23:44:17.833Z,1.85
2022-10-05T23:46:45.556Z,2.03
2022-10-05T23:49:14.891Z,5.13
2022-10-05T23:51:42.827Z,2.25
2022-10-05T23:54:10.566Z,3.97
2022-10-05T23:56:38.306Z,3.22
2022-10-05T23:59:06.029Z,5.50
